• Join FlightAware (Why Join?)
  • Login
  • US Flag 
04:36AM EST


 

Airport Tracker/Info


-or-


 

Live Flight TrackerFlight Track Log ✈ CTL17 ✈ 29-Apr-2013 ✈ KMBS - KYIP

Flight Track Log - Related Links

Times and Time Zones

All times are in EDT time to prevent confusion due to time zone crossing. See the CTL17 flight status page for this flight to view local times or setup timezone preferences in your user account.

Time Position Orientation Groundspeed Altitude Reporting Facility
EDT Latitude Longitude Course Direction KTS MPH feet Rate Location/Type
04:51PM 43.3619 -84.0057 160° South  Level Estimated
04:52PM 43.3366 -83.9838 148° Southeast  Level FlightAware Approximate
04:53PM 43.3080 -83.9718 160° South  Level Estimated
04:54PM 43.2807 -83.9553 156° South  Level FlightAware Approximate
04:55PM 43.2533 -83.9388 156° South  Level FlightAware Approximate
04:56PM 43.2247 -83.9271 163° South  Level Estimated
04:57PM 43.1965 -83.9134 161° South  Level FlightAware Approximate
04:58PM 43.1683 -83.8997 161° South  Level FlightAware Approximate
04:58PM 42.9942 -83.8164 160° South 166 191 5,100  Level Cleveland Center
04:59PM 43.1401 -83.8861 161° South  Level FlightAware Approximate
04:59PM 42.9428 -83.7939 162° South 169 194 5,100  Level Cleveland Center
05:00PM 43.1115 -83.8746 160° South  Level Estimated
05:00PM 42.8994 -83.7747 162° South 170 196 5,100  Level Cleveland Center
05:01PM 43.0835 -83.8603 160° South  Level FlightAware Approximate
05:01PM 42.8606 -83.7500 155° Southeast 168 193 5,100  Level Cleveland Center
05:02PM 43.0555 -83.8461 160° South  Level FlightAware Approximate
05:02PM 42.8153 -83.7336 165° South 169 194 5,100  Level Cleveland Center
05:03PM 43.0275 -83.8318 160° South  Level FlightAware Approximate
05:03PM 42.7675 -83.7283 175° South 164 189 5,100  Level Cleveland Center
05:04PM 42.7242 -83.7119 164° South 167 192 5,100 -60 Level Cleveland Center
05:05PM 42.6786 -83.6956 165° South 167 192 5,000 -180 Descending Cleveland Center
05:06PM 42.6269 -83.6817 169° South 174 200 4,800 -360 Descending Cleveland Center
05:07PM 42.5814 -83.6653 165° South 179 206 4,300 -540 Descending Cleveland Center
05:08PM 42.5319 -83.6517 169° South 179 206 3,800 -480 Descending Cleveland Center
05:09PM 42.4844 -83.6325 163° South 172 198 3,400 -420 Descending Cleveland Center
05:10PM 42.4392 -83.6106 160° South 169 194 3,000 -240 Descending Cleveland Center
05:11PM 42.3958 -83.5889 160° South 165 190 3,000 -300 Level Cleveland Center
05:12PM 42.3550 -83.5589 151° Southeast 169 194 2,500 -480 Descending Cleveland Center
05:13PM 42.3097 -83.5342 158° South 161 185 2,100 -360 Descending Cleveland Center
05:14PM 42.2750 -83.5072 150° Southeast 143 165 1,800 -300 Descending Cleveland Center
05:16PM 42.2333 -83.5167 160° South  Level FlightAware Approximate
05:23PM 42.2393 -83.5310 160° South  Level Estimated
05:24PM 42.2393 -83.5310 160° South  Level Estimated